sensor_id;sensor_type;location;lat;lon;timestamp;pressure;altitude;pressure_sealevel;temperature;humidity
54329;BME280;40710;51.120;13.136;2023-02-23T00:01:49;99034.22;;;11.81;59.94
54329;BME280;40710;51.120;13.136;2023-02-23T00:04:13;99017.88;;;13.97;56.41
54329;BME280;40710;51.120;13.136;2023-02-23T00:06:38;99027.59;;;12.70;57.11
54329;BME280;40710;51.120;13.136;2023-02-23T00:09:05;99041.38;;;11.93;59.51
54329;BME280;40710;51.120;13.136;2023-02-23T00:11:34;99033.44;;;12.35;58.26
54329;BME280;40710;51.120;13.136;2023-02-23T00:13:58;99045.06;;;11.62;59.59
54329;BME280;40710;51.120;13.136;2023-02-23T00:16:24;99034.28;;;12.48;58.64
54329;BME280;40710;51.120;13.136;2023-02-23T00:18:52;99025.47;;;12.62;57.86
54329;BME280;40710;51.120;13.136;2023-02-23T00:21:21;99030.75;;;11.80;58.80
54329;BME280;40710;51.120;13.136;2023-02-23T00:23:50;99022.13;;;12.98;57.20
54329;BME280;40710;51.120;13.136;2023-02-23T00:26:15;99014.66;;;13.05;55.98
54329;BME280;40710;51.120;13.136;2023-02-23T00:28:41;98999.94;;;14.13;53.01
54329;BME280;40710;51.120;13.136;2023-02-23T00:31:06;99011.03;;;13.94;53.00
54329;BME280;40710;51.120;13.136;2023-02-23T00:33:31;99041.31;;;11.66;59.24
54329;BME280;40710;51.120;13.136;2023-02-23T00:36:09;99054.16;;;10.84;62.56
54329;BME280;40710;51.120;13.136;2023-02-23T00:38:34;99002.50;;;14.86;53.29
54329;BME280;40710;51.120;13.136;2023-02-23T00:40:59;98993.25;;;15.59;49.48
54329;BME280;40710;51.120;13.136;2023-02-23T00:43:26;98993.97;;;15.61;49.52
54329;BME280;40710;51.120;13.136;2023-02-23T00:45:54;99019.25;;;13.53;54.06
54329;BME280;40710;51.120;13.136;2023-02-23T00:48:18;99015.38;;;13.46;54.94
54329;BME280;40710;51.120;13.136;2023-02-23T00:50:43;99020.63;;;13.58;54.32
54329;BME280;40710;51.120;13.136;2023-02-23T00:53:07;99016.94;;;13.61;54.67
54329;BME280;40710;51.120;13.136;2023-02-23T00:55:32;99005.75;;;15.23;50.95
54329;BME280;40710;51.120;13.136;2023-02-23T00:57:56;98985.53;;;15.79;49.21
54329;BME280;40710;51.120;13.136;2023-02-23T01:00:21;98986.94;;;15.94;48.24
54329;BME280;40710;51.120;13.136;2023-02-23T01:02:47;98998.06;;;15.31;50.35
54329;BME280;40710;51.120;13.136;2023-02-23T01:05:11;99000.25;;;15.38;49.61
54329;BME280;40710;51.120;13.136;2023-02-23T01:07:37;98997.72;;;15.25;49.74
54329;BME280;40710;51.120;13.136;2023-02-23T01:10:02;98992.16;;;15.50;49.33
54329;BME280;40710;51.120;13.136;2023-02-23T01:12:26;98993.50;;;15.45;50.13
54329;BME280;40710;51.120;13.136;2023-02-23T01:14:51;98987.66;;;15.96;48.06
54329;BME280;40710;51.120;13.136;2023-02-23T01:17:15;99007.84;;;14.62;51.14
54329;BME280;40710;51.120;13.136;2023-02-23T01:19:41;98993.72;;;15.64;48.85
54329;BME280;40710;51.120;13.136;2023-02-23T01:22:05;98989.00;;;15.68;48.85
54329;BME280;40710;51.120;13.136;2023-02-23T01:24:30;98999.50;;;15.81;48.43
54329;BME280;40710;51.120;13.136;2023-02-23T01:26:54;98987.25;;;15.35;49.08
54329;BME280;40710;51.120;13.136;2023-02-23T01:29:19;98987.59;;;15.07;50.11
54329;BME280;40710;51.120;13.136;2023-02-23T01:31:46;98987.09;;;14.80;50.68
54329;BME280;40710;51.120;13.136;2023-02-23T01:34:13;98984.94;;;15.07;50.18
54329;BME280;40710;51.120;13.136;2023-02-23T01:36:40;98979.63;;;14.85;50.39
54329;BME280;40710;51.120;13.136;2023-02-23T01:39:09;98975.81;;;14.89;50.15
54329;BME280;40710;51.120;13.136;2023-02-23T01:41:35;98966.38;;;14.62;51.19
54329;BME280;40710;51.120;13.136;2023-02-23T01:46:40;98960.50;;;14.81;50.13
54329;BME280;40710;51.120;13.136;2023-02-23T01:49:09;98959.44;;;15.18;49.61
54329;BME280;40710;51.120;13.136;2023-02-23T01:51:40;98949.56;;;15.42;49.39
54329;BME280;40710;51.120;13.136;2023-02-23T01:54:11;98999.28;;;11.64;58.17
54329;BME280;40710;51.120;13.136;2023-02-23T01:56:43;99001.75;;;10.95;61.13
54329;BME280;40710;51.120;13.136;2023-02-23T01:59:11;99002.53;;;11.26;60.28
54329;BME280;40710;51.120;13.136;2023-02-23T02:01:38;98995.78;;;11.64;59.38
54329;BME280;40710;51.120;13.136;2023-02-23T02:04:03;98994.88;;;11.65;59.40
54329;BME280;40710;51.120;13.136;2023-02-23T02:06:33;98992.81;;;11.56;59.70
54329;BME280;40710;51.120;13.136;2023-02-23T02:09:03;98997.25;;;11.97;59.02
54329;BME280;40710;51.120;13.136;2023-02-23T02:11:29;98991.28;;;12.35;57.31
54329;BME280;40710;51.120;13.136;2023-02-23T02:16:55;98994.16;;;12.17;57.83
54329;BME280;40710;51.120;13.136;2023-02-23T02:22:20;98959.72;;;14.56;52.20
54329;BME280;40710;51.120;13.136;2023-02-23T02:39:23;98957.16;;;14.44;52.24
54329;BME280;40710;51.120;13.136;2023-02-23T02:45:33;98968.69;;;13.59;54.16
54329;BME280;40710;51.120;13.136;2023-02-23T02:47:55;98980.16;;;13.08;56.02
54329;BME280;40710;51.120;13.136;2023-02-23T02:50:41;98986.00;;;12.47;57.08
54329;BME280;40710;51.120;13.136;2023-02-23T02:53:19;98985.63;;;12.66;56.89
54329;BME280;40710;51.120;13.136;2023-02-23T02:55:48;98977.41;;;12.84;56.52
54329;BME280;40710;51.120;13.136;2023-02-23T02:58:15;98971.47;;;13.19;55.41
54329;BME280;40710;51.120;13.136;2023-02-23T03:00:46;98970.03;;;12.89;56.21
54329;BME280;40710;51.120;13.136;2023-02-23T03:03:39;98983.22;;;12.23;58.30
54329;BME280;40710;51.120;13.136;2023-02-23T03:06:36;98972.78;;;12.75;56.72
54329;BME280;40710;51.120;13.136;2023-02-23T03:12:53;98983.09;;;12.65;57.00
54329;BME280;40710;51.120;13.136;2023-02-23T03:15:57;98979.19;;;12.58;57.49
54329;BME280;40710;51.120;13.136;2023-02-23T03:18:58;98983.00;;;12.26;57.79
54329;BME280;40710;51.120;13.136;2023-02-23T03:24:55;98984.75;;;12.53;57.28
54329;BME280;40710;51.120;13.136;2023-02-23T03:27:53;98990.19;;;12.24;57.80
54329;BME280;40710;51.120;13.136;2023-02-23T03:30:58;98993.81;;;12.49;57.62
54329;BME280;40710;51.120;13.136;2023-02-23T03:36:54;99004.00;;;11.86;58.75
54329;BME280;40710;51.120;13.136;2023-02-23T03:39:47;98997.03;;;12.27;58.30
54329;BME280;40710;51.120;13.136;2023-02-23T03:42:36;98996.53;;;12.35;57.64
54329;BME280;40710;51.120;13.136;2023-02-23T03:45:24;98994.88;;;12.46;57.26
54329;BME280;40710;51.120;13.136;2023-02-23T03:48:10;98995.53;;;12.10;57.88
54329;BME280;40710;51.120;13.136;2023-02-23T03:51:00;98999.44;;;12.17;58.15
54329;BME280;40710;51.120;13.136;2023-02-23T03:54:05;99004.72;;;12.17;57.91
54329;BME280;40710;51.120;13.136;2023-02-23T03:56:54;98999.00;;;12.10;58.22
54329;BME280;40710;51.120;13.136;2023-02-23T03:59:46;99008.31;;;11.75;59.32
54329;BME280;40710;51.120;13.136;2023-02-23T04:02:34;99014.22;;;11.64;59.97
54329;BME280;40710;51.120;13.136;2023-02-23T04:05:21;99009.03;;;11.62;59.82
54329;BME280;40710;51.120;13.136;2023-02-23T04:08:08;99008.50;;;11.43;60.31
54329;BME280;40710;51.120;13.136;2023-02-23T04:11:01;99002.34;;;11.71;59.88
54329;BME280;40710;51.120;13.136;2023-02-23T04:13:59;99004.25;;;11.69;59.81
54329;BME280;40710;51.120;13.136;2023-02-23T04:16:24;99002.72;;;11.94;59.54
54329;BME280;40710;51.120;13.136;2023-02-23T04:18:48;99003.13;;;11.73;59.49
54329;BME280;40710;51.120;13.136;2023-02-23T04:21:13;99004.25;;;11.83;59.33
54329;BME280;40710;51.120;13.136;2023-02-23T04:23:39;98997.28;;;12.09;58.71
54329;BME280;40710;51.120;13.136;2023-02-23T04:26:05;98998.63;;;12.02;58.96
54329;BME280;40710;51.120;13.136;2023-02-23T04:28:30;99005.16;;;11.97;58.99
54329;BME280;40710;51.120;13.136;2023-02-23T04:30:54;99007.03;;;12.22;58.57
54329;BME280;40710;51.120;13.136;2023-02-23T04:33:20;98999.56;;;12.28;57.97
54329;BME280;40710;51.120;13.136;2023-02-23T04:35:45;98997.91;;;12.00;58.49
54329;BME280;40710;51.120;13.136;2023-02-23T04:38:09;98999.78;;;11.98;58.75
54329;BME280;40710;51.120;13.136;2023-02-23T04:40:34;99000.69;;;12.12;58.54
54329;BME280;40710;51.120;13.136;2023-02-23T04:42:59;99003.81;;;12.04;58.86
54329;BME280;40710;51.120;13.136;2023-02-23T04:45:24;99003.19;;;11.86;58.90
54329;BME280;40710;51.120;13.136;2023-02-23T04:47:49;99008.59;;;11.70;59.71
54329;BME280;40710;51.120;13.136;2023-02-23T04:50:14;99005.00;;;11.71;59.64
54329;BME280;40710;51.120;13.136;2023-02-23T04:52:39;99000.50;;;11.59;59.72
54329;BME280;40710;51.120;13.136;2023-02-23T04:55:05;99000.84;;;11.81;59.37
54329;BME280;40710;51.120;13.136;2023-02-23T04:57:30;98998.59;;;11.75;59.50
54329;BME280;40710;51.120;13.136;2023-02-23T04:59:54;99008.25;;;11.04;61.38
54329;BME280;40710;51.120;13.136;2023-02-23T05:02:20;99009.09;;;11.19;61.51
54329;BME280;40710;51.120;13.136;2023-02-23T05:04:45;98991.59;;;11.61;60.34
54329;BME280;40710;51.120;13.136;2023-02-23T05:07:10;98996.47;;;11.53;60.03
54329;BME280;40710;51.120;13.136;2023-02-23T05:09:34;99007.03;;;11.24;60.72
54329;BME280;40710;51.120;13.136;2023-02-23T05:11:59;98998.00;;;11.43;60.85
54329;BME280;40710;51.120;13.136;2023-02-23T05:14:24;98997.56;;;11.36;60.43
54329;BME280;40710;51.120;13.136;2023-02-23T05:16:48;98993.94;;;11.51;60.09
54329;BME280;40710;51.120;13.136;2023-02-23T05:19:13;98997.81;;;11.87;59.10
54329;BME280;40710;51.120;13.136;2023-02-23T05:21:37;98995.59;;;11.67;59.89
54329;BME280;40710;51.120;13.136;2023-02-23T05:24:02;98990.63;;;11.77;59.12
54329;BME280;40710;51.120;13.136;2023-02-23T05:26:27;99003.75;;;11.21;60.99
54329;BME280;40710;51.120;13.136;2023-02-23T05:28:51;99006.56;;;11.03;61.02
54329;BME280;40710;51.120;13.136;2023-02-23T05:31:16;99020.53;;;10.45;62.91
54329;BME280;40710;51.120;13.136;2023-02-23T05:33:40;99022.44;;;10.87;62.50
54329;BME280;40710;51.120;13.136;2023-02-23T05:36:11;99019.41;;;10.34;64.25
54329;BME280;40710;51.120;13.136;2023-02-23T05:38:36;99019.41;;;10.34;64.38
54329;BME280;40710;51.120;13.136;2023-02-23T05:41:09;99030.75;;;10.19;64.45
54329;BME280;40710;51.120;13.136;2023-02-23T05:43:34;99026.31;;;10.19;64.80
54329;BME280;40710;51.120;13.136;2023-02-23T05:45:58;99020.25;;;10.79;63.55
54329;BME280;40710;51.120;13.136;2023-02-23T05:48:24;99026.09;;;10.54;64.46
54329;BME280;40710;51.120;13.136;2023-02-23T05:50:49;99019.88;;;10.71;63.55
54329;BME280;40710;51.120;13.136;2023-02-23T05:53:13;99020.63;;;10.73;63.66
54329;BME280;40710;51.120;13.136;2023-02-23T05:55:38;99009.56;;;11.11;61.95
54329;BME280;40710;51.120;13.136;2023-02-23T05:58:03;99012.41;;;10.94;62.48
54329;BME280;40710;51.120;13.136;2023-02-23T06:00:27;99017.81;;;10.76;62.89
54329;BME280;40710;51.120;13.136;2023-02-23T06:02:52;99014.25;;;10.92;62.32
54329;BME280;40710;51.120;13.136;2023-02-23T06:05:17;99017.81;;;10.76;62.81
54329;BME280;40710;51.120;13.136;2023-02-23T06:07:42;99011.53;;;10.93;62.43
54329;BME280;40710;51.120;13.136;2023-02-23T06:10:06;99012.97;;;11.13;61.69
54329;BME280;40710;51.120;13.136;2023-02-23T06:12:31;99012.00;;;11.29;61.06
54329;BME280;40710;51.120;13.136;2023-02-23T06:14:56;99014.91;;;11.39;60.44
54329;BME280;40710;51.120;13.136;2023-02-23T06:17:20;99012.00;;;11.00;62.91
54329;BME280;40710;51.120;13.136;2023-02-23T06:19:45;99008.53;;;11.28;61.32
54329;BME280;40710;51.120;13.136;2023-02-23T06:22:09;99011.25;;;11.41;60.78
54329;BME280;40710;51.120;13.136;2023-02-23T06:24:34;99016.81;;;11.22;61.69
54329;BME280;40710;51.120;13.136;2023-02-23T06:26:59;99021.59;;;11.15;61.88
54329;BME280;40710;51.120;13.136;2023-02-23T06:29:24;99023.28;;;11.16;61.77
54329;BME280;40710;51.120;13.136;2023-02-23T06:31:49;99019.16;;;11.27;61.47
54329;BME280;40710;51.120;13.136;2023-02-23T06:34:13;99018.31;;;11.26;61.46
54329;BME280;40710;51.120;13.136;2023-02-23T06:36:38;99019.25;;;11.11;61.02
54329;BME280;40710;51.120;13.136;2023-02-23T06:39:02;99019.44;;;11.22;61.05
54329;BME280;40710;51.120;13.136;2023-02-23T06:41:27;99021.78;;;10.98;61.13
54329;BME280;40710;51.120;13.136;2023-02-23T06:43:52;99030.09;;;10.76;62.06
54329;BME280;40710;51.120;13.136;2023-02-23T06:46:17;99022.53;;;11.43;60.83
54329;BME280;40710;51.120;13.136;2023-02-23T06:48:41;99017.94;;;11.04;61.42
54329;BME280;40710;51.120;13.136;2023-02-23T06:51:06;99012.44;;;11.64;60.05
54329;BME280;40710;51.120;13.136;2023-02-23T06:53:30;99017.50;;;11.67;59.53
54329;BME280;40710;51.120;13.136;2023-02-23T06:55:55;99024.22;;;11.01;62.15
54329;BME280;40710;51.120;13.136;2023-02-23T06:58:19;99028.25;;;10.92;61.87
54329;BME280;40710;51.120;13.136;2023-02-23T07:00:44;99025.97;;;10.72;62.16
54329;BME280;40710;51.120;13.136;2023-02-23T07:03:09;99025.41;;;11.67;60.10
54329;BME280;40710;51.120;13.136;2023-02-23T07:05:34;99036.06;;;10.94;61.48
54329;BME280;40710;51.120;13.136;2023-02-23T07:07:58;99035.03;;;11.40;61.25
54329;BME280;40710;51.120;13.136;2023-02-23T07:10:23;99041.31;;;11.08;62.24
54329;BME280;40710;51.120;13.136;2023-02-23T07:12:48;99032.88;;;11.61;60.43
54329;BME280;40710;51.120;13.136;2023-02-23T07:15:12;99047.81;;;11.17;62.19
54329;BME280;40710;51.120;13.136;2023-02-23T07:17:40;99029.25;;;11.90;59.10
54329;BME280;40710;51.120;13.136;2023-02-23T07:20:05;99037.34;;;11.59;59.99
54329;BME280;40710;51.120;13.136;2023-02-23T07:22:30;99045.94;;;11.19;61.40
54329;BME280;40710;51.120;13.136;2023-02-23T07:24:55;99038.56;;;11.67;60.44
54329;BME280;40710;51.120;13.136;2023-02-23T07:27:20;99038.25;;;11.86;59.25
54329;BME280;40710;51.120;13.136;2023-02-23T07:29:44;99050.63;;;12.13;59.13
54329;BME280;40710;51.120;13.136;2023-02-23T07:32:09;99036.47;;;12.81;57.61
54329;BME280;40710;51.120;13.136;2023-02-23T07:34:33;99031.22;;;13.07;56.79
54329;BME280;40710;51.120;13.136;2023-02-23T07:36:58;99029.94;;;13.13;56.05
54329;BME280;40710;51.120;13.136;2023-02-23T07:39:22;99016.81;;;13.63;55.25
54329;BME280;40710;51.120;13.136;2023-02-23T07:41:48;99020.22;;;14.13;54.10
54329;BME280;40710;51.120;13.136;2023-02-23T07:44:13;99027.69;;;14.08;54.32
54329;BME280;40710;51.120;13.136;2023-02-23T07:46:37;99024.75;;;14.24;53.47
54329;BME280;40710;51.120;13.136;2023-02-23T07:49:02;99015.66;;;14.39;53.18
54329;BME280;40710;51.120;13.136;2023-02-23T07:51:27;99019.41;;;14.72;52.55
54329;BME280;40710;51.120;13.136;2023-02-23T07:53:51;99020.78;;;14.89;51.97
54329;BME280;40710;51.120;13.136;2023-02-23T07:56:17;99022.44;;;14.54;52.59
54329;BME280;40710;51.120;13.136;2023-02-23T07:58:43;99025.19;;;14.77;52.19
54329;BME280;40710;51.120;13.136;2023-02-23T08:01:09;99019.56;;;14.82;52.26
54329;BME280;40710;51.120;13.136;2023-02-23T08:03:33;99021.66;;;14.65;52.66
54329;BME280;40710;51.120;13.136;2023-02-23T08:05:58;99025.25;;;14.88;52.26
54329;BME280;40710;51.120;13.136;2023-02-23T08:08:22;99022.78;;;14.74;52.84
54329;BME280;40710;51.120;13.136;2023-02-23T08:10:47;99019.56;;;14.93;52.42
54329;BME280;40710;51.120;13.136;2023-02-23T08:13:12;99020.41;;;14.82;52.77
54329;BME280;40710;51.120;13.136;2023-02-23T08:15:36;99028.78;;;14.76;53.19
54329;BME280;40710;51.120;13.136;2023-02-23T08:18:01;99022.94;;;14.48;54.33
54329;BME280;40710;51.120;13.136;2023-02-23T08:20:25;99039.84;;;14.22;55.04
54329;BME280;40710;51.120;13.136;2023-02-23T08:22:54;99032.81;;;14.09;55.36
54329;BME280;40710;51.120;13.136;2023-02-23T08:25:19;99038.72;;;14.37;54.73
54329;BME280;40710;51.120;13.136;2023-02-23T08:27:44;99035.38;;;14.35;55.18
54329;BME280;40710;51.120;13.136;2023-02-23T08:30:09;99036.59;;;14.18;55.84
54329;BME280;40710;51.120;13.136;2023-02-23T08:32:34;99039.13;;;14.19;55.46
54329;BME280;40710;51.120;13.136;2023-02-23T08:34:59;99038.53;;;14.51;54.84
54329;BME280;40710;51.120;13.136;2023-02-23T08:37:26;99030.59;;;14.75;54.33
54329;BME280;40710;51.120;13.136;2023-02-23T08:39:50;99030.56;;;15.34;53.26
54329;BME280;40710;51.120;13.136;2023-02-23T08:42:15;99030.53;;;15.00;53.35
54329;BME280;40710;51.120;13.136;2023-02-23T08:44:41;99026.16;;;14.76;54.40
54329;BME280;40710;51.120;13.136;2023-02-23T08:47:05;99054.41;;;13.66;57.49
54329;BME280;40710;51.120;13.136;2023-02-23T08:49:30;99045.75;;;14.25;56.03
54329;BME280;40710;51.120;13.136;2023-02-23T08:51:56;99053.97;;;14.57;55.97
54329;BME280;40710;51.120;13.136;2023-02-23T08:54:21;99040.03;;;14.55;55.48
54329;BME280;40710;51.120;13.136;2023-02-23T08:56:45;99034.88;;;15.12;54.06
54329;BME280;40710;51.120;13.136;2023-02-23T08:59:12;99031.94;;;14.81;54.66
54329;BME280;40710;51.120;13.136;2023-02-23T09:01:36;99039.00;;;15.27;53.53
54329;BME280;40710;51.120;13.136;2023-02-23T09:04:02;99047.19;;;14.66;55.11
54329;BME280;40710;51.120;13.136;2023-02-23T09:06:27;99039.94;;;15.15;54.45
54329;BME280;40710;51.120;13.136;2023-02-23T09:08:52;99036.84;;;15.32;54.36
54329;BME280;40710;51.120;13.136;2023-02-23T09:11:17;99044.81;;;14.74;55.17
54329;BME280;40710;51.120;13.136;2023-02-23T09:13:42;99038.50;;;15.34;54.02
54329;BME280;40710;51.120;13.136;2023-02-23T09:16:07;99048.38;;;14.49;55.85
54329;BME280;40710;51.120;13.136;2023-02-23T09:18:32;99060.59;;;13.91;57.91
54329;BME280;40710;51.120;13.136;2023-02-23T09:20:57;99054.75;;;14.23;56.64
54329;BME280;40710;51.120;13.136;2023-02-23T09:23:22;99043.44;;;15.04;54.91
54329;BME280;40710;51.120;13.136;2023-02-23T09:25:51;99040.44;;;15.54;53.57
54329;BME280;40710;51.120;13.136;2023-02-23T09:28:18;99034.19;;;15.55;53.63
54329;BME280;40710;51.120;13.136;2023-02-23T09:30:45;99030.44;;;15.58;53.32
54329;BME280;40710;51.120;13.136;2023-02-23T09:33:10;99033.94;;;15.24;53.91
54329;BME280;40710;51.120;13.136;2023-02-23T09:35:35;99038.78;;;15.30;54.02
54329;BME280;40710;51.120;13.136;2023-02-23T09:38:00;99035.50;;;15.38;53.74
54329;BME280;40710;51.120;13.136;2023-02-23T09:40:30;99042.59;;;15.49;53.59
54329;BME280;40710;51.120;13.136;2023-02-23T09:43:10;99038.75;;;15.19;54.02
54329;BME280;40710;51.120;13.136;2023-02-23T09:48:19;99030.28;;;15.93;53.06
54329;BME280;40710;51.120;13.136;2023-02-23T09:50:56;99013.44;;;17.22;49.85
54329;BME280;40710;51.120;13.136;2023-02-23T09:56:07;99018.00;;;17.41;48.86
54329;BME280;40710;51.120;13.136;2023-02-23T09:58:35;99022.03;;;16.72;49.90
54329;BME280;40710;51.120;13.136;2023-02-23T10:01:36;99022.84;;;17.05;49.49
54329;BME280;40710;51.120;13.136;2023-02-23T10:07:06;99025.53;;;17.46;49.76
54329;BME280;40710;51.120;13.136;2023-02-23T10:12:10;99002.59;;;19.50;44.17
54329;BME280;40710;51.120;13.136;2023-02-23T10:17:51;99004.69;;;19.18;44.35
54329;BME280;40710;51.120;13.136;2023-02-23T10:20:34;99017.09;;;18.51;46.46
54329;BME280;40710;51.120;13.136;2023-02-23T10:23:08;99014.72;;;19.34;44.48
54329;BME280;40710;51.120;13.136;2023-02-23T10:25:42;99013.56;;;18.99;45.58
54329;BME280;40710;51.120;13.136;2023-02-23T10:28:16;99013.25;;;19.50;44.16
54329;BME280;40710;51.120;13.136;2023-02-23T10:30:42;99038.88;;;17.25;49.04
54329;BME280;40710;51.120;13.136;2023-02-23T10:33:15;99008.56;;;19.34;44.56
54329;BME280;40710;51.120;13.136;2023-02-23T10:35:44;99021.03;;;18.47;45.93
54329;BME280;40710;51.120;13.136;2023-02-23T10:38:17;98997.84;;;19.99;43.30
54329;BME280;40710;51.120;13.136;2023-02-23T10:40:44;99000.03;;;20.75;42.14
54329;BME280;40710;51.120;13.136;2023-02-23T10:43:11;98994.19;;;20.98;41.32
54329;BME280;40710;51.120;13.136;2023-02-23T10:45:48;98989.31;;;21.20;41.15
54329;BME280;40710;51.120;13.136;2023-02-23T10:48:25;98993.78;;;21.11;41.19
54329;BME280;40710;51.120;13.136;2023-02-23T10:50:53;98991.56;;;21.06;41.74
54329;BME280;40710;51.120;13.136;2023-02-23T10:53:24;98979.88;;;21.84;39.51
54329;BME280;40710;51.120;13.136;2023-02-23T10:56:05;98978.69;;;22.46;38.90
54329;BME280;40710;51.120;13.136;2023-02-23T10:58:40;99007.06;;;20.05;42.36
54329;BME280;40710;51.120;13.136;2023-02-23T11:01:08;98967.91;;;24.98;34.69
54329;BME280;40710;51.120;13.136;2023-02-23T11:03:45;98968.56;;;25.60;33.49
54329;BME280;40710;51.120;13.136;2023-02-23T11:06:31;99009.66;;;20.86;41.13
54329;BME280;40710;51.120;13.136;2023-02-23T11:08:57;99014.63;;;20.09;43.81
54329;BME280;40710;51.120;13.136;2023-02-23T11:11:26;98994.81;;;21.18;41.78
54329;BME280;40710;51.120;13.136;2023-02-23T11:13:52;98987.31;;;21.99;39.91
54329;BME280;40710;51.120;13.136;2023-02-23T11:16:22;99014.75;;;19.62;44.21
54329;BME280;40710;51.120;13.136;2023-02-23T11:18:54;99023.13;;;18.24;47.09
54329;BME280;40710;51.120;13.136;2023-02-23T11:23:51;99014.44;;;19.37;45.88
54329;BME280;40710;51.120;13.136;2023-02-23T11:26:37;99006.81;;;19.05;46.08
54329;BME280;40710;51.120;13.136;2023-02-23T11:29:13;98999.00;;;19.41;45.61
54329;BME280;40710;51.120;13.136;2023-02-23T11:31:38;99015.84;;;17.25;48.77
54329;BME280;40710;51.120;13.136;2023-02-23T11:34:21;99006.38;;;19.10;46.41
54329;BME280;40710;51.120;13.136;2023-02-23T11:36:57;99019.13;;;17.17;49.53
54329;BME280;40710;51.120;13.136;2023-02-23T11:39:22;99008.84;;;18.15;48.00
54329;BME280;40710;51.120;13.136;2023-02-23T11:42:16;99015.38;;;17.20;50.24
54329;BME280;40710;51.120;13.136;2023-02-23T11:44:42;99017.19;;;16.77;51.32
54329;BME280;40710;51.120;13.136;2023-02-23T11:47:15;99013.75;;;17.29;50.46
54329;BME280;40710;51.120;13.136;2023-02-23T11:49:45;99014.78;;;16.86;52.06
54329;BME280;40710;51.120;13.136;2023-02-23T11:52:15;98999.91;;;17.25;50.80
54329;BME280;40710;51.120;13.136;2023-02-23T11:54:50;99005.63;;;16.99;51.27
54329;BME280;40710;51.120;13.136;2023-02-23T11:57:21;99009.00;;;16.27;52.79
54329;BME280;40710;51.120;13.136;2023-02-23T11:59:46;99010.34;;;15.55;55.03
54329;BME280;40710;51.120;13.136;2023-02-23T12:02:23;99015.28;;;15.71;54.67
54329;BME280;40710;51.120;13.136;2023-02-23T12:04:53;99012.28;;;15.08;56.18
54329;BME280;40710;51.120;13.136;2023-02-23T12:07:38;98999.72;;;15.89;54.69
54329;BME280;40710;51.120;13.136;2023-02-23T12:15:47;98998.94;;;16.42;53.50
54329;BME280;40710;51.120;13.136;2023-02-23T12:18:27;98995.56;;;16.40;53.50
54329;BME280;40710;51.120;13.136;2023-02-23T12:23:47;98995.13;;;16.56;53.27
54329;BME280;40710;51.120;13.136;2023-02-23T12:26:16;98993.25;;;15.59;54.80
54329;BME280;40710;51.120;13.136;2023-02-23T12:31:26;98980.91;;;16.99;52.18
54329;BME280;40710;51.120;13.136;2023-02-23T12:34:01;98983.69;;;16.76;52.83
54329;BME280;40710;51.120;13.136;2023-02-23T12:36:57;98980.50;;;16.82;52.68
54329;BME280;40710;51.120;13.136;2023-02-23T12:39:34;98990.00;;;16.11;54.08
54329;BME280;40710;51.120;13.136;2023-02-23T12:42:21;98975.50;;;16.68;52.73
54329;BME280;40710;51.120;13.136;2023-02-23T12:44:54;98974.69;;;15.82;53.73
54329;BME280;40710;51.120;13.136;2023-02-23T12:47:34;98966.97;;;16.43;53.26
54329;BME280;40710;51.120;13.136;2023-02-23T12:50:05;98969.38;;;16.47;52.74
54329;BME280;40710;51.120;13.136;2023-02-23T12:52:44;98953.16;;;17.53;50.62
54329;BME280;40710;51.120;13.136;2023-02-23T12:55:12;98950.84;;;17.80;49.79
54329;BME280;40710;51.120;13.136;2023-02-23T12:57:56;98970.00;;;16.60;52.67
54329;BME280;40710;51.120;13.136;2023-02-23T13:03:27;98975.09;;;16.10;53.87
54329;BME280;40710;51.120;13.136;2023-02-23T13:08:55;98972.63;;;15.85;54.23
54329;BME280;40710;51.120;13.136;2023-02-23T13:17:25;98971.44;;;16.64;52.51
54329;BME280;40710;51.120;13.136;2023-02-23T13:20:15;98966.25;;;16.20;52.74
54329;BME280;40710;51.120;13.136;2023-02-23T13:22:58;98961.00;;;16.93;52.07
54329;BME280;40710;51.120;13.136;2023-02-23T13:25:33;98954.75;;;17.25;50.80
54329;BME280;40710;51.120;13.136;2023-02-23T13:28:02;98958.63;;;16.69;51.56
54329;BME280;40710;51.120;13.136;2023-02-23T13:30:29;98957.34;;;16.85;51.97
54329;BME280;40710;51.120;13.136;2023-02-23T13:32:59;98949.81;;;17.61;50.09
54329;BME280;40710;51.120;13.136;2023-02-23T13:35:36;98955.13;;;17.51;50.43
54329;BME280;40710;51.120;13.136;2023-02-23T13:43:21;98945.09;;;16.93;51.33
54329;BME280;40710;51.120;13.136;2023-02-23T13:46:03;98949.31;;;16.96;51.75
54329;BME280;40710;51.120;13.136;2023-02-23T13:48:42;98945.03;;;17.45;50.97
54329;BME280;40710;51.120;13.136;2023-02-23T13:51:28;98962.00;;;16.50;52.55
54329;BME280;40710;51.120;13.136;2023-02-23T13:56:43;98959.91;;;16.75;52.58
54329;BME280;40710;51.120;13.136;2023-02-23T13:59:22;98965.84;;;16.25;53.97
54329;BME280;40710;51.120;13.136;2023-02-23T14:01:51;98952.16;;;17.04;51.81
54329;BME280;40710;51.120;13.136;2023-02-23T14:04:26;98942.38;;;17.14;51.75
54329;BME280;40710;51.120;13.136;2023-02-23T14:09:36;98974.38;;;15.41;55.88
54329;BME280;40710;51.120;13.136;2023-02-23T14:12:14;98957.66;;;16.70;52.99
54329;BME280;40710;51.120;13.136;2023-02-23T14:14:44;98958.06;;;16.12;54.14
54329;BME280;40710;51.120;13.136;2023-02-23T14:20:11;98951.88;;;16.65;53.14
54329;BME280;40710;51.120;13.136;2023-02-23T14:25:44;98955.06;;;16.38;54.22
54329;BME280;40710;51.120;13.136;2023-02-23T14:28:32;98957.84;;;16.36;54.07
54329;BME280;40710;51.120;13.136;2023-02-23T14:41:21;98961.06;;;16.19;54.92
54329;BME280;40710;51.120;13.136;2023-02-23T14:43:58;98958.44;;;16.40;54.31
54329;BME280;40710;51.120;13.136;2023-02-23T14:46:24;98963.91;;;15.40;57.21
54329;BME280;40710;51.120;13.136;2023-02-23T14:49:00;98959.28;;;15.76;56.55